createdAt,value
2023-04-10T00:00:31.470Z,2.70
2023-04-10T00:03:01.418Z,2.70
2023-04-10T00:05:29.520Z,2.60
2023-04-10T00:07:57.515Z,2.60
2023-04-10T00:10:26.469Z,2.60
2023-04-10T00:12:56.560Z,2.50
2023-04-10T00:15:24.832Z,2.50
2023-04-10T00:17:55.284Z,2.50
2023-04-10T00:20:26.219Z,2.50
2023-04-10T00:22:54.533Z,2.50
2023-04-10T00:25:23.140Z,2.50
2023-04-10T00:27:51.441Z,2.40
2023-04-10T00:30:21.035Z,2.40
2023-04-10T00:32:49.098Z,2.40
2023-04-10T00:35:17.220Z,2.40
2023-04-10T00:37:45.238Z,2.40
2023-04-10T00:40:13.551Z,2.30
2023-04-10T00:42:41.683Z,2.30
2023-04-10T00:45:10.584Z,2.30
2023-04-10T00:47:40.925Z,2.20
2023-04-10T00:50:09.476Z,2.20
2023-04-10T00:52:37.651Z,2.20
2023-04-10T00:55:07.079Z,2.10
2023-04-10T00:57:35.452Z,2.10
2023-04-10T01:00:04.721Z,2.10
2023-04-10T01:02:33.232Z,2.10
2023-04-10T01:05:02.670Z,2.10
2023-04-10T01:07:44.520Z,2.00
2023-04-10T01:10:18.324Z,2.00
2023-04-10T01:12:57.164Z,2.00
2023-04-10T01:15:28.120Z,2.00
2023-04-10T01:18:00.119Z,2.00
2023-04-10T01:20:32.533Z,2.00
2023-04-10T01:23:28.011Z,2.00
2023-04-10T01:26:00.418Z,2.00
2023-04-10T01:28:53.186Z,1.90
2023-04-10T01:31:28.171Z,1.90
2023-04-10T01:34:01.190Z,1.90
2023-04-10T01:36:32.912Z,2.00
2023-04-10T01:39:02.389Z,2.00
2023-04-10T01:41:31.744Z,2.00
2023-04-10T01:44:03.917Z,2.10
2023-04-10T01:46:33.765Z,2.10
2023-04-10T01:49:03.731Z,2.10
2023-04-10T01:51:33.817Z,2.10
2023-04-10T01:54:04.607Z,2.00
2023-04-10T01:56:35.110Z,2.00
2023-04-10T01:59:05.647Z,2.00
2023-04-10T02:01:33.738Z,2.00
2023-04-10T02:04:03.149Z,2.00
2023-04-10T02:06:41.732Z,2.00
2023-04-10T02:09:17.239Z,2.00
2023-04-10T02:11:52.934Z,2.00
2023-04-10T02:14:23.746Z,1.90
2023-04-10T02:16:56.164Z,1.90
2023-04-10T02:19:26.140Z,1.90
2023-04-10T02:21:54.942Z,1.90
2023-04-10T02:24:23.306Z,1.90
2023-04-10T02:26:52.550Z,1.90
2023-04-10T02:29:22.112Z,1.90
2023-04-10T02:31:51.161Z,1.90
2023-04-10T02:34:19.182Z,1.90
2023-04-10T02:36:47.220Z,1.90
2023-04-10T02:39:15.443Z,1.90
2023-04-10T02:41:43.461Z,1.90
2023-04-10T02:44:11.528Z,1.80
2023-04-10T02:46:42.045Z,1.80
2023-04-10T02:49:10.559Z,1.90
2023-04-10T02:51:38.642Z,1.90
2023-04-10T02:54:06.729Z,1.90
2023-04-10T02:56:35.630Z,1.90
2023-04-10T02:59:03.782Z,1.90
2023-04-10T03:01:32.015Z,1.90
2023-04-10T03:04:03.006Z,1.90
2023-04-10T03:06:31.296Z,1.90
2023-04-10T03:08:59.488Z,1.90
2023-04-10T03:11:27.594Z,1.90
2023-04-10T03:13:55.989Z,1.90
2023-04-10T03:16:24.114Z,1.90
2023-04-10T03:18:52.324Z,1.80
2023-04-10T03:21:21.929Z,1.90
2023-04-10T03:23:49.908Z,1.90
2023-04-10T03:26:17.971Z,2.00
2023-04-10T03:28:45.962Z,2.00
2023-04-10T03:31:14.002Z,1.90
2023-04-10T03:33:42.153Z,1.90
2023-04-10T03:36:10.833Z,1.90
2023-04-10T03:38:40.594Z,1.90
2023-04-10T03:41:08.699Z,1.90
2023-04-10T03:43:36.686Z,1.80
2023-04-10T03:46:04.692Z,1.80
2023-04-10T03:48:33.490Z,1.80
2023-04-10T03:51:01.465Z,1.80
2023-04-10T03:53:29.460Z,1.80
2023-04-10T03:55:58.866Z,1.80
2023-04-10T03:58:26.836Z,1.80
2023-04-10T04:00:54.807Z,1.80
2023-04-10T04:03:23.412Z,1.90
2023-04-10T04:05:52.158Z,1.90
2023-04-10T04:08:20.239Z,1.90
2023-04-10T04:10:48.297Z,2.00
2023-04-10T04:13:17.868Z,1.90
2023-04-10T04:15:47.810Z,2.00
2023-04-10T04:18:15.845Z,2.00
2023-04-10T04:20:43.887Z,2.00
2023-04-10T04:23:12.026Z,2.00
2023-04-10T04:25:40.036Z,2.00
2023-04-10T04:28:08.117Z,2.00
2023-04-10T04:30:37.582Z,2.00
2023-04-10T04:33:05.779Z,2.00
2023-04-10T04:35:33.923Z,2.10
2023-04-10T04:38:02.377Z,2.10
2023-04-10T04:40:30.431Z,2.10
2023-04-10T04:42:58.412Z,2.10
2023-04-10T04:45:26.456Z,2.20
2023-04-10T04:47:55.915Z,2.20
2023-04-10T04:50:23.957Z,2.20
2023-04-10T04:52:52.017Z,2.20
2023-04-10T04:55:20.231Z,2.20
2023-04-10T04:57:48.221Z,2.30
2023-04-10T05:00:16.597Z,2.40
2023-04-10T05:02:44.658Z,2.40
2023-04-10T05:05:14.214Z,2.40
2023-04-10T05:07:42.165Z,2.50
2023-04-10T05:10:10.609Z,2.60
2023-04-10T05:12:38.570Z,2.70
2023-04-10T05:15:07.995Z,2.80
2023-04-10T05:17:36.018Z,3.00
2023-04-10T05:20:04.866Z,3.10
2023-04-10T05:22:34.259Z,3.20
2023-04-10T05:25:02.268Z,3.30
2023-04-10T05:27:30.241Z,3.50
2023-04-10T05:29:58.218Z,3.60
2023-04-10T05:32:26.242Z,3.80
2023-04-10T05:34:55.298Z,4.00
2023-04-10T05:37:23.317Z,4.10
2023-04-10T05:39:52.908Z,4.20
2023-04-10T05:42:22.688Z,4.30
2023-04-10T05:44:52.807Z,4.40
2023-04-10T05:47:20.919Z,4.60
2023-04-10T05:49:48.932Z,4.80
2023-04-10T05:52:16.904Z,5.00
2023-04-10T05:54:44.883Z,5.30
2023-04-10T05:57:14.237Z,5.60
2023-04-10T05:59:42.197Z,5.90
2023-04-10T06:02:10.589Z,6.20
2023-04-10T06:04:38.893Z,6.40
2023-04-10T06:07:07.097Z,6.60
2023-04-10T06:09:35.061Z,6.90
2023-04-10T06:12:03.029Z,7.30
2023-04-10T06:14:32.310Z,7.60
2023-04-10T06:17:00.382Z,8.00
2023-04-10T06:19:28.456Z,8.20
2023-04-10T06:21:56.404Z,8.30
2023-04-10T06:24:24.352Z,8.40
2023-04-10T06:26:52.477Z,8.40
2023-04-10T06:29:20.476Z,8.40
2023-04-10T06:31:50.013Z,8.40
2023-04-10T06:34:18.034Z,8.50
2023-04-10T06:36:46.013Z,8.50
2023-04-10T06:39:14.086Z,8.50
2023-04-10T06:41:42.171Z,8.60
2023-04-10T06:44:10.327Z,8.80
2023-04-10T06:46:38.433Z,9.30
2023-04-10T06:49:07.930Z,9.70
2023-04-10T06:51:36.011Z,10.20
2023-04-10T06:54:04.272Z,10.60
2023-04-10T06:56:32.612Z,10.90
2023-04-10T06:59:00.890Z,11.20
2023-04-10T07:01:29.418Z,11.70
2023-04-10T07:03:57.551Z,12.10
2023-04-10T07:06:27.532Z,12.40
2023-04-10T07:08:56.158Z,12.80
2023-04-10T07:11:24.326Z,13.30
2023-04-10T07:13:53.945Z,13.50
2023-04-10T07:16:22.012Z,13.60
2023-04-10T07:18:50.560Z,13.70
2023-04-10T07:21:18.547Z,13.90
2023-04-10T07:23:48.059Z,14.20
2023-04-10T07:26:16.460Z,14.20
2023-04-10T07:28:44.483Z,14.20
2023-04-10T07:31:13.827Z,14.20
2023-04-10T07:33:41.943Z,14.10
2023-04-10T07:36:10.668Z,14.30
2023-04-10T07:38:38.791Z,14.50
2023-04-10T07:41:09.786Z,14.60
2023-04-10T07:43:37.909Z,14.80
2023-04-10T07:46:06.940Z,14.80
2023-04-10T07:48:35.261Z,15.10
2023-04-10T07:51:03.763Z,15.20
2023-04-10T07:53:32.054Z,15.20
2023-04-10T07:56:00.282Z,15.10
2023-04-10T07:58:29.762Z,15.00
2023-04-10T08:00:58.039Z,15.00
2023-04-10T08:03:27.992Z,15.10
2023-04-10T08:05:56.473Z,15.40
2023-04-10T08:08:24.495Z,15.20
2023-04-10T08:10:52.582Z,15.20
2023-04-10T08:13:20.565Z,15.20
2023-04-10T08:15:50.181Z,15.50
2023-04-10T08:18:18.188Z,15.70
2023-04-10T08:20:46.128Z,15.70
2023-04-10T08:23:20.527Z,15.80
2023-04-10T08:25:49.159Z,15.60
2023-04-10T08:28:17.149Z,15.70
2023-04-10T08:30:45.299Z,15.80
2023-04-10T08:33:14.824Z,15.80
2023-04-10T08:35:43.200Z,15.80
2023-04-10T08:38:14.061Z,15.90
2023-04-10T08:40:44.468Z,16.40
2023-04-10T08:43:12.764Z,16.30
2023-04-10T08:45:42.489Z,16.20
2023-04-10T08:48:12.273Z,16.10
2023-04-10T08:50:44.159Z,16.30
2023-04-10T08:53:15.366Z,16.50
2023-04-10T08:55:45.213Z,16.70
2023-04-10T08:58:14.368Z,16.60
2023-04-10T09:00:42.478Z,16.40
2023-04-10T09:03:14.355Z,16.30
2023-04-10T09:05:44.361Z,16.10
2023-04-10T09:08:13.615Z,16.00
2023-04-10T09:10:41.770Z,15.70
2023-04-10T09:13:09.954Z,15.60
2023-04-10T09:15:59.809Z,15.80
2023-04-10T09:18:43.356Z,16.40
2023-04-10T09:21:14.093Z,16.30
2023-04-10T09:23:44.471Z,16.50
2023-04-10T09:26:28.301Z,16.70
2023-04-10T09:29:01.457Z,16.70
2023-04-10T09:31:31.716Z,16.70
2023-04-10T09:34:10.638Z,16.80
2023-04-10T09:36:41.426Z,16.70
2023-04-10T09:39:11.111Z,17.10
2023-04-10T09:42:00.098Z,17.40
2023-04-10T09:44:32.711Z,17.50
2023-04-10T09:47:16.107Z,17.20
2023-04-10T09:49:48.214Z,17.30
2023-04-10T09:52:22.162Z,17.40
2023-04-10T09:54:50.276Z,17.40
2023-04-10T09:57:20.057Z,17.70
2023-04-10T09:59:51.456Z,17.90
2023-04-10T10:02:20.238Z,18.00
2023-04-10T10:04:49.968Z,18.20
2023-04-10T10:07:21.188Z,18.00
2023-04-10T10:09:52.050Z,17.90
2023-04-10T10:12:25.175Z,17.80
2023-04-10T10:15:01.348Z,17.90
2023-04-10T10:17:36.449Z,18.10
2023-04-10T10:20:10.158Z,18.00
2023-04-10T10:22:39.979Z,18.00
2023-04-10T10:25:09.936Z,17.90
2023-04-10T10:27:39.313Z,17.80
2023-04-10T10:30:28.099Z,17.80
2023-04-10T10:32:59.446Z,17.80
2023-04-10T10:35:29.862Z,17.80
2023-04-10T10:38:00.611Z,18.00
2023-04-10T10:40:33.533Z,18.00
2023-04-10T10:43:09.797Z,18.40
2023-04-10T10:45:42.264Z,18.60
2023-04-10T10:48:11.256Z,18.50
2023-04-10T10:50:58.835Z,18.50
2023-04-10T10:53:43.801Z,18.20
2023-04-10T10:56:37.155Z,18.20
2023-04-10T10:59:05.394Z,18.40
2023-04-10T11:01:33.643Z,18.80
2023-04-10T11:04:02.291Z,18.60
2023-04-10T11:06:49.674Z,18.60
2023-04-10T11:09:51.094Z,18.80
2023-04-10T11:12:21.341Z,18.80
2023-04-10T11:14:59.277Z,18.90
2023-04-10T11:17:53.993Z,18.90
2023-04-10T11:20:27.153Z,19.00
2023-04-10T11:23:12.598Z,18.90
2023-04-10T11:25:59.995Z,18.80
2023-04-10T11:28:38.332Z,18.70
2023-04-10T11:31:19.866Z,18.80
2023-04-10T11:33:49.428Z,18.80
2023-04-10T11:36:18.604Z,18.70
2023-04-10T11:39:00.467Z,18.70
2023-04-10T11:41:32.059Z,18.30
2023-04-10T11:44:00.685Z,18.60
2023-04-10T11:46:29.366Z,18.70
2023-04-10T11:48:59.832Z,18.70
2023-04-10T11:51:28.473Z,18.60
2023-04-10T11:54:09.593Z,18.70
2023-04-10T11:56:40.417Z,18.80
2023-04-10T11:59:10.938Z,19.00
2023-04-10T12:01:41.905Z,18.90
2023-04-10T12:04:18.213Z,18.50
2023-04-10T12:06:47.162Z,18.70
2023-04-10T12:09:17.322Z,18.70
2023-04-10T12:11:53.040Z,18.50
2023-04-10T12:14:22.088Z,18.50
2023-04-10T12:16:51.415Z,18.70
2023-04-10T12:19:20.688Z,18.60
2023-04-10T12:21:51.943Z,18.70
2023-04-10T12:24:44.540Z,18.70
2023-04-10T12:27:18.924Z,18.70
2023-04-10T12:29:47.302Z,18.80
2023-04-10T12:32:16.180Z,18.50
2023-04-10T12:34:50.516Z,18.70
2023-04-10T12:37:18.779Z,18.90
2023-04-10T12:39:46.881Z,19.00
2023-04-10T12:42:16.570Z,19.00
2023-04-10T12:44:57.403Z,19.20
2023-04-10T12:47:26.801Z,19.30
2023-04-10T12:50:16.321Z,19.40
2023-04-10T12:52:47.244Z,19.20
2023-04-10T12:55:16.836Z,19.40
2023-04-10T12:57:47.604Z,19.40
2023-04-10T13:00:19.563Z,19.50
2023-04-10T13:02:49.097Z,19.40
2023-04-10T13:05:17.710Z,19.20
2023-04-10T13:07:45.835Z,19.10
2023-04-10T13:10:13.907Z,19.10
2023-04-10T13:12:43.636Z,19.20
2023-04-10T13:15:11.894Z,19.30
2023-04-10T13:17:41.926Z,19.50
2023-04-10T13:20:11.350Z,19.70
2023-04-10T13:22:39.353Z,19.90
2023-04-10T13:25:07.982Z,19.70
2023-04-10T13:27:36.295Z,19.80
2023-04-10T13:30:04.906Z,19.80
2023-04-10T13:32:33.133Z,19.90
2023-04-10T13:35:02.708Z,20.20
2023-04-10T13:37:30.926Z,20.30
2023-04-10T13:39:59.147Z,20.30
2023-04-10T13:42:27.364Z,20.50
2023-04-10T13:44:55.693Z,20.30
2023-04-10T13:47:24.955Z,20.30
2023-04-10T13:49:53.276Z,20.20
2023-04-10T13:52:23.323Z,20.20
2023-04-10T13:54:51.500Z,20.20
2023-04-10T13:57:19.545Z,20.10
2023-04-10T13:59:47.802Z,20.00
2023-04-10T14:02:16.457Z,19.70
2023-04-10T14:04:46.187Z,19.70
2023-04-10T14:07:14.267Z,19.50
2023-04-10T14:09:43.697Z,19.40
2023-04-10T14:12:11.944Z,19.40
2023-04-10T14:14:40.199Z,19.50
2023-04-10T14:17:08.272Z,19.60
2023-04-10T14:19:36.749Z,19.60
2023-04-10T14:22:04.849Z,19.50
2023-04-10T14:24:32.934Z,19.40
2023-04-10T14:27:02.561Z,19.80
2023-04-10T14:29:37.441Z,20.30
2023-04-10T14:32:08.950Z,20.30
2023-04-10T14:34:37.209Z,20.50
2023-04-10T14:37:05.540Z,20.60
2023-04-10T14:39:45.269Z,20.60
2023-04-10T14:42:14.918Z,20.70
2023-04-10T14:44:44.232Z,20.30
2023-04-10T14:47:14.512Z,20.30
2023-04-10T14:49:42.782Z,20.10
2023-04-10T14:52:11.090Z,20.40
2023-04-10T14:54:39.578Z,20.40
2023-04-10T14:57:15.960Z,20.30
2023-04-10T14:59:47.370Z,20.30
2023-04-10T15:02:16.836Z,20.00
2023-04-10T15:04:45.024Z,20.10
2023-04-10T15:07:13.967Z,19.80
2023-04-10T15:09:43.855Z,19.60
2023-04-10T15:12:12.388Z,19.30
2023-04-10T15:14:43.775Z,19.40
2023-04-10T15:17:13.520Z,19.30
2023-04-10T15:19:41.930Z,19.00
2023-04-10T15:22:10.366Z,19.00
2023-04-10T15:24:49.837Z,19.00
2023-04-10T15:27:20.985Z,19.10
2023-04-10T15:29:49.057Z,18.80
2023-04-10T15:32:18.605Z,18.60
2023-04-10T15:34:46.791Z,18.60
2023-04-10T15:37:14.816Z,18.50
2023-04-10T15:39:42.793Z,18.40
2023-04-10T15:42:10.912Z,18.20
2023-04-10T15:44:39.236Z,18.20
2023-04-10T15:47:07.293Z,18.00
2023-04-10T15:49:38.736Z,18.00
2023-04-10T15:52:07.764Z,18.00
2023-04-10T15:54:35.935Z,18.00
2023-04-10T15:57:04.576Z,18.10
2023-04-10T15:59:33.893Z,18.00
2023-04-10T16:02:02.269Z,18.00
2023-04-10T16:04:31.340Z,18.00
2023-04-10T16:07:00.829Z,17.90
2023-04-10T16:09:28.867Z,18.00
2023-04-10T16:11:57.807Z,17.90
2023-04-10T16:14:26.035Z,17.90
2023-04-10T16:16:54.548Z,17.80
2023-04-10T16:19:23.015Z,17.80
2023-04-10T16:21:51.265Z,17.80
2023-04-10T16:24:20.802Z,17.80
2023-04-10T16:26:48.930Z,17.70
2023-04-10T16:29:19.739Z,17.70
2023-04-10T16:31:48.108Z,17.70
2023-04-10T16:34:16.309Z,17.60
2023-04-10T16:36:44.409Z,17.50
2023-04-10T16:39:12.608Z,17.50
2023-04-10T16:41:42.013Z,17.50
2023-04-10T16:44:10.190Z,17.40
2023-04-10T16:46:38.343Z,17.30
2023-04-10T16:49:06.467Z,17.30
2023-04-10T16:51:34.539Z,17.20
2023-04-10T16:54:03.672Z,17.20
2023-04-10T16:56:32.695Z,17.10
2023-04-10T16:59:02.085Z,17.10
2023-04-10T17:01:30.878Z,17.10
2023-04-10T17:03:59.128Z,17.10
2023-04-10T17:06:27.375Z,17.10
2023-04-10T17:08:55.555Z,17.00
2023-04-10T17:11:24.114Z,17.00
2023-04-10T17:13:52.202Z,17.00
2023-04-10T17:16:21.953Z,17.00
2023-04-10T17:18:49.984Z,17.00
2023-04-10T17:21:17.910Z,16.90
2023-04-10T17:23:46.061Z,16.90
2023-04-10T17:26:15.248Z,16.90
2023-04-10T17:28:46.223Z,16.80
2023-04-10T17:31:14.510Z,16.80
2023-04-10T17:33:44.485Z,16.80
2023-04-10T17:36:13.717Z,16.70
2023-04-10T17:38:42.460Z,16.70
2023-04-10T17:41:11.175Z,16.60
2023-04-10T17:43:40.209Z,16.60
2023-04-10T17:46:08.645Z,16.60
2023-04-10T17:48:39.021Z,16.50
2023-04-10T17:51:09.208Z,16.50
2023-04-10T17:53:37.582Z,16.40
2023-04-10T17:56:06.192Z,16.40
2023-04-10T17:58:34.334Z,16.40
2023-04-10T18:01:02.503Z,16.40
2023-04-10T18:03:30.672Z,16.30
2023-04-10T18:05:59.002Z,16.30
2023-04-10T18:08:28.442Z,16.30
2023-04-10T18:10:56.573Z,16.20
2023-04-10T18:13:24.578Z,16.20
2023-04-10T18:15:54.611Z,16.10
2023-04-10T18:18:22.733Z,16.10
2023-04-10T18:20:50.756Z,16.20
2023-04-10T18:23:18.870Z,16.10
2023-04-10T18:25:54.970Z,16.10
2023-04-10T18:28:23.380Z,16.10
2023-04-10T18:30:53.850Z,16.10
2023-04-10T18:33:24.124Z,16.00
2023-04-10T18:35:52.719Z,16.00
2023-04-10T18:38:21.261Z,16.00
2023-04-10T18:40:49.293Z,16.00
2023-04-10T18:43:18.697Z,16.00
2023-04-10T18:45:46.869Z,16.00
2023-04-10T18:48:15.781Z,16.00
2023-04-10T18:50:44.129Z,16.00
2023-04-10T18:53:12.092Z,15.90
2023-04-10T18:55:40.245Z,15.90
2023-04-10T18:58:08.427Z,15.90
2023-04-10T19:00:38.188Z,15.90
2023-04-10T19:03:06.459Z,15.90
2023-04-10T19:05:34.742Z,15.80
2023-04-10T19:08:04.654Z,15.80
2023-04-10T19:10:33.768Z,15.70
2023-04-10T19:13:01.806Z,15.70
2023-04-10T19:15:30.323Z,15.70
2023-04-10T19:17:59.764Z,15.70
2023-04-10T19:20:52.698Z,15.60
2023-04-10T19:23:17.770Z,15.60
2023-04-10T19:25:45.893Z,15.60
2023-04-10T19:28:14.206Z,15.60
2023-04-10T19:30:42.401Z,15.70
2023-04-10T19:33:11.760Z,15.60
2023-04-10T19:35:39.807Z,15.50
2023-04-10T19:38:07.906Z,15.40
2023-04-10T19:40:37.428Z,15.20
2023-04-10T19:43:05.749Z,14.80
2023-04-10T19:45:38.174Z,14.60
2023-04-10T19:48:07.146Z,14.20
2023-04-10T19:50:36.755Z,13.80
2023-04-10T19:53:05.960Z,13.30
2023-04-10T19:55:34.326Z,12.90
2023-04-10T19:58:02.434Z,12.60
2023-04-10T20:00:30.697Z,12.30
2023-04-10T20:02:58.950Z,12.10
2023-04-10T20:05:27.370Z,11.90
2023-04-10T20:07:57.154Z,11.70
2023-04-10T20:10:25.374Z,11.60
2023-04-10T20:12:53.353Z,11.50
2023-04-10T20:15:21.670Z,11.40
2023-04-10T20:17:49.674Z,11.40
2023-04-10T20:20:17.825Z,11.30
2023-04-10T20:22:45.823Z,11.20
2023-04-10T20:25:15.471Z,11.20
2023-04-10T20:27:43.422Z,11.10
2023-04-10T20:30:11.958Z,11.10
2023-04-10T20:32:40.258Z,11.10
2023-04-10T20:35:09.373Z,11.10
2023-04-10T20:37:37.474Z,11.00
2023-04-10T20:40:06.455Z,11.00
2023-04-10T20:42:36.151Z,11.00
2023-04-10T20:45:05.116Z,11.00
2023-04-10T20:47:33.253Z,11.00
2023-04-10T20:50:01.401Z,11.00
2023-04-10T20:52:29.485Z,11.00
2023-04-10T20:54:57.614Z,11.00
2023-04-10T20:57:26.840Z,11.00
2023-04-10T20:59:56.460Z,11.00
2023-04-10T21:02:24.711Z,11.00
2023-04-10T21:04:53.277Z,10.90
2023-04-10T21:07:21.291Z,10.90
2023-04-10T21:09:49.447Z,10.90
2023-04-10T21:12:17.506Z,10.90
2023-04-10T21:14:45.827Z,10.90
2023-04-10T21:17:16.659Z,10.90
2023-04-10T21:19:44.805Z,10.90
2023-04-10T21:22:13.222Z,10.90
2023-04-10T21:24:41.313Z,10.80
2023-04-10T21:27:09.369Z,10.80
2023-04-10T21:29:37.396Z,10.80
2023-04-10T21:32:05.522Z,10.80
2023-04-10T21:34:35.059Z,10.70
2023-04-10T21:37:03.192Z,10.70
2023-04-10T21:39:31.391Z,10.70
2023-04-10T21:41:59.559Z,10.70
2023-04-10T21:44:27.682Z,10.60
2023-04-10T21:46:55.737Z,10.60
2023-04-10T21:49:23.824Z,10.60
2023-04-10T21:51:53.251Z,10.60
2023-04-10T21:54:21.270Z,10.50
2023-04-10T21:56:49.294Z,10.50
2023-04-10T21:59:17.302Z,10.50
2023-04-10T22:01:45.599Z,10.50
2023-04-10T22:04:13.888Z,10.50
2023-04-10T22:06:42.068Z,10.40
2023-04-10T22:09:11.513Z,10.40
2023-04-10T22:11:40.002Z,10.40
2023-04-10T22:14:17.029Z,10.30
2023-04-10T22:16:45.548Z,10.30
2023-04-10T22:19:13.710Z,10.30
2023-04-10T22:21:41.788Z,10.30
2023-04-10T22:24:11.334Z,10.20
2023-04-10T22:26:42.041Z,10.20
2023-04-10T22:29:10.234Z,10.20
2023-04-10T22:31:38.314Z,10.20
2023-04-10T22:34:06.372Z,10.10
2023-04-10T22:36:34.508Z,10.10
2023-04-10T22:39:03.059Z,10.10
2023-04-10T22:41:32.932Z,10.00
2023-04-10T22:44:01.241Z,10.00
2023-04-10T22:46:29.460Z,10.00
2023-04-10T22:48:57.867Z,10.00
2023-04-10T22:51:26.752Z,9.90
2023-04-10T22:53:55.182Z,9.90
2023-04-10T22:56:26.476Z,9.90
2023-04-10T22:58:56.668Z,9.80
2023-04-10T23:01:25.017Z,9.80
2023-04-10T23:03:53.881Z,9.80
2023-04-10T23:06:22.151Z,9.70
2023-04-10T23:08:50.188Z,9.70
2023-04-10T23:11:18.321Z,9.70
2023-04-10T23:13:46.570Z,9.70
2023-04-10T23:16:16.180Z,9.70
2023-04-10T23:18:44.232Z,9.70
2023-04-10T23:21:12.273Z,9.60
2023-04-10T23:23:40.225Z,9.60
2023-04-10T23:26:08.641Z,9.60
2023-04-10T23:28:36.809Z,9.60
2023-04-10T23:31:05.014Z,9.50
2023-04-10T23:33:34.406Z,9.50
2023-04-10T23:36:02.620Z,9.50
2023-04-10T23:38:33.811Z,9.50
2023-04-10T23:41:02.923Z,9.50
2023-04-10T23:43:30.969Z,9.40
2023-04-10T23:45:59.079Z,9.40
2023-04-10T23:48:27.160Z,9.40
2023-04-10T23:51:05.767Z,9.40
2023-04-10T23:53:34.135Z,9.30
2023-04-10T23:56:02.832Z,9.30
2023-04-10T23:58:30.943Z,9.20
